Time;durP1;ratioP1;P1;durP2;ratioP2;P2;SDS_P1;SDS_P2;PMS_P1;PMS_P2;Temp;Humidity;BMP_temperature;BMP_pressure;BME280_temperature;BME280_humidity;BME280_pressure;Samples;Min_cycle;Max_cycle;Signal;HPM_P1;HPM_P2
2022/02/16 00:04:21;;;;;;;67.55;30.75;;;;;;;;;;10486671;28;20324;-70
2022/02/16 00:09:22;;;;;;;61.13;33.17;;;;;;;;;;10488429;28;20028;-74
2022/02/16 00:14:22;;;;;;;71.43;33.77;;;;;;;;;;10486769;28;20039;-71
2022/02/16 00:19:22;;;;;;;67.82;31.83;;;;;;;;;;10486577;28;20013;-69
2022/02/16 00:24:23;;;;;;;63.73;31.83;;;;;;;;;;10482398;28;20415;-75
2022/02/16 00:29:23;;;;;;;62.23;31.80;;;;;;;;;;10477435;28;20016;-71
2022/02/16 00:34:23;;;;;;;64.40;32.13;;;;;;;;;;10485810;28;20044;-71
2022/02/16 00:39:23;;;;;;;59.83;30.08;;;;;;;;;;10485918;28;20027;-76
2022/02/16 00:44:24;;;;;;;75.28;32.67;;;;;;;;;;10485724;28;20031;-71
2022/02/16 00:49:24;;;;;;;71.13;33.80;;;;;;;;;;10485407;28;20020;-73
2022/02/16 00:54:24;;;;;;;72.50;36.10;;;;;;;;;;10485170;28;20403;-70
2022/02/16 00:59:25;;;;;;;68.38;35.47;;;;;;;;;;10485224;28;20020;-71
2022/02/16 01:04:25;;;;;;;74.25;35.40;;;;;;;;;;10485243;28;20024;-73
2022/02/16 01:09:26;;;;;;;77.10;32.85;;;;;;;;;;10485759;28;20031;-71
2022/02/16 01:14:26;;;;;;;72.97;31.98;;;;;;;;;;10485000;28;20039;-75
2022/02/16 01:19:26;;;;;;;66.23;32.70;;;;;;;;;;10484921;28;20016;-71
2022/02/16 01:24:26;;;;;;;69.60;33.17;;;;;;;;;;10483655;28;20263;-71
2022/02/16 01:29:27;;;;;;;74.40;30.60;;;;;;;;;;10483855;28;20024;-72
2022/02/16 01:34:27;;;;;;;64.40;30.13;;;;;;;;;;10483515;28;20537;-76
2022/02/16 01:39:27;;;;;;;69.87;30.37;;;;;;;;;;10483313;28;20495;-71
2022/02/16 01:44:30;;;;;;;67.77;29.87;;;;;;;;;;10466673;28;20024;-74
2022/02/16 01:49:31;;;;;;;62.92;30.08;;;;;;;;;;10483074;28;20095;-76
2022/02/16 01:54:31;;;;;;;64.80;30.42;;;;;;;;;;10465988;28;20025;-74
2022/02/16 01:59:33;;;;;;;60.00;29.80;;;;;;;;;;10483208;28;20081;-72
2022/02/16 02:04:33;;;;;;;58.97;31.48;;;;;;;;;;10481815;28;20166;-75
2022/02/16 02:09:35;;;;;;;69.50;29.52;;;;;;;;;;10483999;28;20089;-76
2022/02/16 02:14:35;;;;;;;60.13;31.55;;;;;;;;;;10482965;28;20020;-76
2022/02/16 02:19:35;;;;;;;56.53;30.43;;;;;;;;;;10483739;28;20438;-75
2022/02/16 02:24:35;;;;;;;56.17;30.02;;;;;;;;;;10481943;28;20024;-74
2022/02/16 02:29:39;;;;;;;64.20;29.40;;;;;;;;;;10482674;28;20020;-77
2022/02/16 02:34:39;;;;;;;58.90;30.77;;;;;;;;;;10482091;28;20051;-76
2022/02/16 02:39:39;;;;;;;53.20;25.15;;;;;;;;;;10483208;28;20028;-71
2022/02/16 02:44:40;;;;;;;52.03;29.23;;;;;;;;;;10484593;28;20056;-71
2022/02/16 02:49:40;;;;;;;42.53;21.40;;;;;;;;;;10483201;28;20013;-72
2022/02/16 02:54:40;;;;;;;35.40;16.50;;;;;;;;;;10481770;28;20836;-76
2022/02/16 02:59:40;;;;;;;41.10;21.48;;;;;;;;;;10482936;28;20013;-71
2022/02/16 03:04:41;;;;;;;42.45;20.10;;;;;;;;;;10481464;28;20029;-74
2022/02/16 03:09:41;;;;;;;42.15;20.90;;;;;;;;;;10482361;28;20063;-75
2022/02/16 03:14:42;;;;;;;33.78;19.10;;;;;;;;;;10482504;28;20025;-74
2022/02/16 03:19:42;;;;;;;30.83;15.00;;;;;;;;;;10481423;28;20502;-75
2022/02/16 03:24:43;;;;;;;22.25;14.70;;;;;;;;;;10480975;28;20078;-76
2022/02/16 03:29:43;;;;;;;26.80;14.17;;;;;;;;;;10481121;28;20397;-75
2022/02/16 03:34:43;;;;;;;26.95;13.75;;;;;;;;;;10480874;28;20105;-73
2022/02/16 03:39:44;;;;;;;39.78;17.50;;;;;;;;;;10487862;28;20021;-71
2022/02/16 03:44:44;;;;;;;47.63;23.73;;;;;;;;;;10488977;28;20032;-75
2022/02/16 03:49:44;;;;;;;56.13;27.33;;;;;;;;;;10488609;28;20451;-78
2022/02/16 03:54:44;;;;;;;55.10;27.77;;;;;;;;;;10487810;28;20013;-70
2022/02/16 03:59:45;;;;;;;57.72;30.70;;;;;;;;;;10486979;28;20602;-79
2022/02/16 04:04:45;;;;;;;61.58;29.15;;;;;;;;;;10463156;28;20017;-77
2022/02/16 04:09:45;;;;;;;55.22;29.50;;;;;;;;;;10462683;28;20053;-78
2022/02/16 04:14:46;;;;;;;62.50;32.05;;;;;;;;;;10445608;28;20021;-73
2022/02/16 04:19:46;;;;;;;57.35;29.42;;;;;;;;;;10462167;28;20413;-74
2022/02/16 04:24:46;;;;;;;67.38;34.47;;;;;;;;;;10445212;28;20022;-77
2022/02/16 04:29:46;;;;;;;62.00;30.93;;;;;;;;;;10461537;28;20075;-70
2022/02/16 04:34:47;;;;;;;61.30;31.97;;;;;;;;;;10486030;28;20045;-71
2022/02/16 04:39:47;;;;;;;56.17;31.00;;;;;;;;;;10487853;28;20075;-74
2022/02/16 04:44:47;;;;;;;52.45;30.60;;;;;;;;;;10460596;28;20025;-72
2022/02/16 04:49:48;;;;;;;65.53;31.83;;;;;;;;;;10458843;28;20028;-72
2022/02/16 04:54:48;;;;;;;61.83;30.23;;;;;;;;;;10460483;28;20500;-72
2022/02/16 04:59:48;;;;;;;64.38;34.25;;;;;;;;;;10445775;28;20671;-73
2022/02/16 05:04:48;;;;;;;62.60;35.40;;;;;;;;;;10467582;28;20032;-76
2022/02/16 05:09:49;;;;;;;59.00;31.30;;;;;;;;;;10484819;28;20135;-72
2022/02/16 05:14:49;;;;;;;42.33;21.63;;;;;;;;;;10491603;28;20472;-77
2022/02/16 05:19:50;;;;;;;41.13;23.95;;;;;;;;;;10478514;28;20032;-76
2022/02/16 05:24:50;;;;;;;38.38;20.60;;;;;;;;;;10442648;28;20028;-72
2022/02/16 05:29:50;;;;;;;42.23;20.37;;;;;;;;;;10450275;28;20429;-71
2022/02/16 05:34:51;;;;;;;36.78;17.65;;;;;;;;;;10482547;28;20131;-70
2022/02/16 05:39:51;;;;;;;29.20;17.07;;;;;;;;;;10478044;28;20020;-76
2022/02/16 05:44:51;;;;;;;33.47;18.77;;;;;;;;;;10441672;28;20079;-77
2022/02/16 05:49:51;;;;;;;34.50;17.50;;;;;;;;;;10466684;28;20484;-76
2022/02/16 05:54:52;;;;;;;31.17;17.25;;;;;;;;;;10477987;28;20812;-71
2022/02/16 05:59:53;;;;;;;34.78;17.92;;;;;;;;;;10482370;28;20020;-75
2022/02/16 06:04:53;;;;;;;39.08;17.95;;;;;;;;;;10482155;28;20024;-76
2022/02/16 06:09:53;;;;;;;42.67;18.48;;;;;;;;;;10481968;28;20220;-72
2022/02/16 06:14:53;;;;;;;40.72;21.60;;;;;;;;;;10481800;28;20082;-76
2022/02/16 06:19:54;;;;;;;41.90;21.88;;;;;;;;;;10481782;28;20023;-78
2022/02/16 06:24:54;;;;;;;40.50;19.42;;;;;;;;;;10482533;28;20042;-73
2022/02/16 06:29:54;;;;;;;49.92;20.60;;;;;;;;;;10482023;28;20296;-72
2022/02/16 06:34:55;;;;;;;37.88;20.33;;;;;;;;;;10481891;28;20114;-73
2022/02/16 06:39:55;;;;;;;50.10;24.27;;;;;;;;;;10483245;28;20028;-72
2022/02/16 06:44:55;;;;;;;40.60;22.02;;;;;;;;;;10481705;28;20028;-72
2022/02/16 06:49:55;;;;;;;60.78;21.58;;;;;;;;;;10481144;28;20104;-75
2022/02/16 06:54:56;;;;;;;36.88;19.17;;;;;;;;;;10481203;28;20464;-72
2022/02/16 06:59:56;;;;;;;42.67;19.90;;;;;;;;;;10480664;28;20464;-76
2022/02/16 07:04:58;;;;;;;55.75;20.58;;;;;;;;;;10475221;28;20028;-72
2022/02/16 07:09:58;;;;;;;35.38;19.90;;;;;;;;;;10482654;28;20020;-71
2022/02/16 07:14:58;;;;;;;36.10;19.23;;;;;;;;;;10488374;28;20024;-75
2022/02/16 07:19:58;;;;;;;38.28;17.80;;;;;;;;;;10478945;28;20055;-71
2022/02/16 07:24:59;;;;;;;41.88;19.02;;;;;;;;;;10487844;28;20031;-71
2022/02/16 07:29:59;;;;;;;37.87;18.37;;;;;;;;;;10488034;28;20029;-75
2022/02/16 07:34:59;;;;;;;39.45;17.27;;;;;;;;;;10488448;28;20306;-71
2022/02/16 07:40:00;;;;;;;39.30;17.88;;;;;;;;;;10489201;28;20021;-75
2022/02/16 07:45:04;;;;;;;32.00;15.98;;;;;;;;;;10487969;28;20025;-72
2022/02/16 07:50:05;;;;;;;40.08;17.70;;;;;;;;;;10487731;28;20028;-75
2022/02/16 07:55:05;;;;;;;37.97;16.02;;;;;;;;;;10480765;28;20034;-72
2022/02/16 08:00:06;;;;;;;28.35;15.63;;;;;;;;;;10481647;28;20564;-72
2022/02/16 08:05:07;;;;;;;37.72;18.83;;;;;;;;;;10469344;28;20032;-70
2022/02/16 08:10:07;;;;;;;34.13;16.73;;;;;;;;;;10485308;28;20021;-75
2022/02/16 08:15:09;;;;;;;37.35;18.38;;;;;;;;;;10471839;28;20057;-73
2022/02/16 08:20:10;;;;;;;43.90;18.57;;;;;;;;;;10446500;28;20025;-69
2022/02/16 08:25:10;;;;;;;44.00;20.20;;;;;;;;;;10458827;28;20032;-69
2022/02/16 08:30:11;;;;;;;50.30;21.73;;;;;;;;;;10461104;28;20099;-74
2022/02/16 08:35:12;;;;;;;43.05;19.55;;;;;;;;;;10445182;28;20098;-74
2022/02/16 08:40:13;;;;;;;49.90;22.27;;;;;;;;;;10444854;28;20037;-75
2022/02/16 08:45:13;;;;;;;48.43;22.73;;;;;;;;;;10444728;28;20107;-76
2022/02/16 08:50:13;;;;;;;45.60;21.88;;;;;;;;;;10454563;28;20753;-74
2022/02/16 08:55:13;;;;;;;52.25;24.30;;;;;;;;;;10445682;28;20033;-75
2022/02/16 09:00:15;;;;;;;48.08;25.73;;;;;;;;;;10461032;28;20381;-76
2022/02/16 09:05:15;;;;;;;57.80;25.83;;;;;;;;;;10460350;28;20044;-73
2022/02/16 09:10:15;;;;;;;59.23;29.07;;;;;;;;;;10460404;28;20100;-79
2022/02/16 09:15:17;;;;;;;56.17;27.27;;;;;;;;;;10472398;28;20566;-77
2022/02/16 09:20:17;;;;;;;71.80;30.70;;;;;;;;;;10465355;28;20059;-73
2022/02/16 09:25:18;;;;;;;63.10;28.60;;;;;;;;;;10482500;28;20032;-73
2022/02/16 09:30:18;;;;;;;66.28;29.80;;;;;;;;;;10482555;28;20040;-77
2022/02/16 09:35:18;;;;;;;55.28;26.55;;;;;;;;;;10482438;28;20075;-72
2022/02/16 09:40:18;;;;;;;63.63;24.25;;;;;;;;;;10482025;28;20531;-73
2022/02/16 09:45:19;;;;;;;59.25;25.77;;;;;;;;;;10479672;28;20403;-76
2022/02/16 09:50:19;;;;;;;52.67;26.90;;;;;;;;;;10474229;28;20515;-74
2022/02/16 09:55:19;;;;;;;51.67;25.88;;;;;;;;;;10460737;28;20477;-71
2022/02/16 10:00:20;;;;;;;57.17;26.13;;;;;;;;;;10482868;28;20447;-71
2022/02/16 10:05:20;;;;;;;57.72;27.15;;;;;;;;;;10471501;28;20032;-71
2022/02/16 10:10:22;;;;;;;61.28;26.05;;;;;;;;;;10482787;28;20416;-71
2022/02/16 10:15:34;;;;;;;61.78;25.33;;;;;;;;;;10457045;28;20067;-76
2022/02/16 10:20:37;;;;;;;58.88;27.38;;;;;;;;;;10459424;28;20465;-71
2022/02/16 10:25:37;;;;;;;60.28;26.17;;;;;;;;;;10468659;28;20028;-71
2022/02/16 10:30:42;;;;;;;56.37;29.13;;;;;;;;;;10482651;28;20052;-69
2022/02/16 10:35:43;;;;;;;59.53;28.25;;;;;;;;;;10478200;28;20048;-71
2022/02/16 10:40:57;;;;;;;63.45;29.55;;;;;;;;;;10477490;28;20035;-77
2022/02/16 10:45:57;;;;;;;56.40;29.08;;;;;;;;;;10487344;28;20058;-77
2022/02/16 10:50:58;;;;;;;59.25;28.45;;;;;;;;;;10491436;28;20546;-76
2022/02/16 10:55:59;;;;;;;56.13;26.23;;;;;;;;;;10491111;28;20119;-75
2022/02/16 11:01:01;;;;;;;50.10;23.80;;;;;;;;;;10490495;28;20038;-71
2022/02/16 11:06:04;;;;;;;49.25;22.73;;;;;;;;;;10466899;28;20029;-72
2022/02/16 11:11:05;;;;;;;47.70;24.80;;;;;;;;;;10467155;28;20028;-75
2022/02/16 11:16:05;;;;;;;51.53;25.30;;;;;;;;;;10467098;28;20024;-72
2022/02/16 11:21:17;;;;;;;50.60;25.47;;;;;;;;;;10450200;28;20017;-76
2022/02/16 11:26:37;;;;;;;50.95;23.88;;;;;;;;;;10453562;28;20028;-75
2022/02/16 11:31:38;;;;;;;41.88;23.42;;;;;;;;;;10469109;28;20599;-73
2022/02/16 11:36:48;;;;;;;52.75;22.90;;;;;;;;;;10468948;28;20048;-71
2022/02/16 11:41:55;;;;;;;53.97;22.00;;;;;;;;;;10468818;28;20032;-71
2022/02/16 11:46:59;;;;;;;51.77;22.63;;;;;;;;;;10453521;28;20560;-72
2022/02/16 11:51:59;;;;;;;44.05;20.17;;;;;;;;;;10452290;28;20020;-74
2022/02/16 11:57:19;;;;;;;45.72;22.88;;;;;;;;;;10465767;28;20021;-73
2022/02/16 12:02:20;;;;;;;42.83;20.52;;;;;;;;;;10461899;28;20028;-73
2022/02/16 12:07:23;;;;;;;49.38;21.05;;;;;;;;;;10462043;28;20024;-72
2022/02/16 12:12:29;;;;;;;40.45;19.50;;;;;;;;;;10446999;28;20040;-72
2022/02/16 12:17:29;;;;;;;37.60;16.67;;;;;;;;;;10461793;28;20021;-75
2022/02/16 12:22:30;;;;;;;44.03;17.83;;;;;;;;;;10444725;28;20500;-78
2022/02/16 12:27:30;;;;;;;26.40;13.77;;;;;;;;;;10445517;28;20299;-76
2022/02/16 12:32:30;;;;;;;24.10;13.05;;;;;;;;;;10462092;28;20041;-71
2022/02/16 12:37:30;;;;;;;17.40;9.03;;;;;;;;;;10486751;28;20115;-72
2022/02/16 12:42:32;;;;;;;17.90;8.43;;;;;;;;;;10485516;28;20154;-78
2022/02/16 12:47:32;;;;;;;19.88;8.70;;;;;;;;;;10485549;28;20555;-72
2022/02/16 12:52:33;;;;;;;15.18;8.57;;;;;;;;;;10484540;28;20077;-73
2022/02/16 12:57:33;;;;;;;20.40;8.45;;;;;;;;;;10484934;28;20047;-77
2022/02/16 13:02:34;;;;;;;17.45;7.82;;;;;;;;;;10465673;28;20021;-73
2022/02/16 13:07:35;;;;;;;15.23;7.60;;;;;;;;;;10444045;28;20035;-71
2022/02/16 13:12:43;;;;;;;19.65;7.35;;;;;;;;;;10463276;28;20085;-72
2022/02/16 13:17:48;;;;;;;17.05;7.07;;;;;;;;;;10455295;28;20051;-75
2022/02/16 13:22:54;;;;;;;16.17;7.75;;;;;;;;;;10443488;28;20032;-70
2022/02/16 13:27:55;;;;;;;18.38;6.68;;;;;;;;;;10441595;28;20511;-72
2022/02/16 13:32:55;;;;;;;13.40;7.47;;;;;;;;;;10441928;28;20060;-73
2022/02/16 13:38:00;;;;;;;20.50;7.53;;;;;;;;;;10458177;28;20025;-72
2022/02/16 13:43:02;;;;;;;13.88;6.97;;;;;;;;;;10457754;28;20020;-71
2022/02/16 13:48:04;;;;;;;13.63;7.78;;;;;;;;;;10441251;28;20017;-76
2022/02/16 13:53:06;;;;;;;14.18;6.57;;;;;;;;;;10456801;28;20024;-76
2022/02/16 13:58:07;;;;;;;11.95;6.05;;;;;;;;;;10442470;28;20017;-71
2022/02/16 14:03:09;;;;;;;23.20;6.65;;;;;;;;;;10441227;28;20479;-76
2022/02/16 14:08:09;;;;;;;12.65;7.47;;;;;;;;;;10456350;28;20021;-73
2022/02/16 14:13:10;;;;;;;19.67;7.33;;;;;;;;;;10456762;28;20392;-76
2022/02/16 14:18:10;;;;;;;17.30;7.17;;;;;;;;;;10456474;28;20016;-72
2022/02/16 14:23:10;;;;;;;19.83;7.30;;;;;;;;;;10439223;28;20299;-71
2022/02/16 14:28:11;;;;;;;14.63;7.77;;;;;;;;;;10441367;28;20460;-71
2022/02/16 14:33:11;;;;;;;16.67;9.20;;;;;;;;;;10445639;28;20519;-69
2022/02/16 14:38:11;;;;;;;18.60;9.35;;;;;;;;;;10481146;28;20326;-72
2022/02/16 14:43:11;;;;;;;17.50;8.95;;;;;;;;;;10480731;28;20024;-69
2022/02/16 14:48:12;;;;;;;26.85;8.75;;;;;;;;;;10481987;28;20050;-70
2022/02/16 14:53:12;;;;;;;14.40;8.07;;;;;;;;;;10481012;28;20447;-73
2022/02/16 14:58:12;;;;;;;17.08;8.23;;;;;;;;;;10480511;28;20399;-75
2022/02/16 15:03:13;;;;;;;21.15;9.10;;;;;;;;;;10480773;28;20488;-69
2022/02/16 15:08:13;;;;;;;19.97;8.33;;;;;;;;;;10479983;28;20021;-72
2022/02/16 15:13:13;;;;;;;19.20;9.13;;;;;;;;;;10454810;28;20677;-71
2022/02/16 15:18:14;;;;;;;15.07;8.37;;;;;;;;;;10439973;28;20558;-76
2022/02/16 15:23:14;;;;;;;17.48;8.27;;;;;;;;;;10456985;28;20032;-76
2022/02/16 15:28:15;;;;;;;23.30;9.43;;;;;;;;;;10438750;28;20073;-76
2022/02/16 15:33:15;;;;;;;16.38;8.60;;;;;;;;;;10443172;28;20075;-75
2022/02/16 15:38:16;;;;;;;20.98;9.32;;;;;;;;;;10462692;28;20021;-69
2022/02/16 15:43:16;;;;;;;20.77;9.50;;;;;;;;;;10462263;28;20858;-72
2022/02/16 15:48:16;;;;;;;41.27;12.57;;;;;;;;;;10459429;28;20040;-74
2022/02/16 15:53:17;;;;;;;31.57;13.60;;;;;;;;;;10486823;28;20035;-74
2022/02/16 15:58:17;;;;;;;26.70;13.97;;;;;;;;;;10488329;28;20399;-75
2022/02/16 16:03:17;;;;;;;31.45;12.27;;;;;;;;;;10486482;28;20111;-76
2022/02/16 16:08:18;;;;;;;23.05;12.90;;;;;;;;;;10472975;28;20029;-75
2022/02/16 16:13:18;;;;;;;38.28;14.68;;;;;;;;;;10461402;28;20029;-72
2022/02/16 16:18:19;;;;;;;30.08;15.95;;;;;;;;;;10461266;28;20074;-69
2022/02/16 16:23:19;;;;;;;49.10;18.75;;;;;;;;;;10460897;28;20025;-72
2022/02/16 16:28:20;;;;;;;32.90;16.50;;;;;;;;;;10460633;28;20089;-76
2022/02/16 16:33:20;;;;;;;57.58;17.50;;;;;;;;;;10459597;28;20194;-76
2022/02/16 16:38:21;;;;;;;37.20;16.23;;;;;;;;;;10459901;28;20036;-76
2022/02/16 16:43:21;;;;;;;35.95;15.75;;;;;;;;;;10459226;28;20044;-77
2022/02/16 16:48:21;;;;;;;34.20;16.00;;;;;;;;;;10459479;28;20161;-78
2022/02/16 16:53:22;;;;;;;44.10;16.53;;;;;;;;;;10460660;28;20036;-69
2022/02/16 16:58:23;;;;;;;28.20;10.90;;;;;;;;;;10460569;28;20500;-75
2022/02/16 17:03:23;;;;;;;37.47;14.50;;;;;;;;;;10444154;28;20510;-76
2022/02/16 17:08:24;;;;;;;38.10;17.00;;;;;;;;;;10459704;28;20029;-71
2022/02/16 17:13:24;;;;;;;31.08;13.30;;;;;;;;;;10444062;28;20025;-77
2022/02/16 17:18:24;;;;;;;28.30;13.53;;;;;;;;;;10458786;28;20091;-78
2022/02/16 17:23:25;;;;;;;36.00;16.40;;;;;;;;;;10458486;28;20271;-71
2022/02/16 17:28:25;;;;;;;37.78;16.70;;;;;;;;;;10442380;28;20573;-76
2022/02/16 17:33:25;;;;;;;46.05;17.65;;;;;;;;;;10446561;28;20436;-78
2022/02/16 17:38:25;;;;;;;38.90;16.70;;;;;;;;;;10483543;28;20043;-77
2022/02/16 17:43:26;;;;;;;45.47;18.17;;;;;;;;;;10482456;28;20158;-73
2022/02/16 17:48:26;;;;;;;42.30;17.40;;;;;;;;;;10465189;28;20024;-73
2022/02/16 17:53:27;;;;;;;33.55;15.90;;;;;;;;;;10451722;28;20464;-71
2022/02/16 17:58:27;;;;;;;28.35;14.02;;;;;;;;;;10437202;28;20107;-71
2022/02/16 18:03:27;;;;;;;27.63;13.40;;;;;;;;;;10451601;28;20456;-77
2022/02/16 18:08:28;;;;;;;28.02;14.15;;;;;;;;;;10477970;28;20124;-71
2022/02/16 18:13:30;;;;;;;31.10;13.83;;;;;;;;;;10438893;28;20033;-71
2022/02/16 18:18:31;;;;;;;27.38;12.27;;;;;;;;;;10456714;28;20398;-72
2022/02/16 18:23:32;;;;;;;23.55;13.70;;;;;;;;;;10456246;28;20094;-76
2022/02/16 18:28:32;;;;;;;26.57;13.10;;;;;;;;;;10440647;28;20507;-72
2022/02/16 18:33:39;;;;;;;31.90;15.52;;;;;;;;;;10439737;28;20049;-77
2022/02/16 18:38:40;;;;;;;39.42;16.85;;;;;;;;;;10448777;28;20120;-76
2022/02/16 18:43:41;;;;;;;39.87;17.47;;;;;;;;;;10482183;28;20025;-73
2022/02/16 18:48:42;;;;;;;35.58;20.20;;;;;;;;;;10480906;28;20036;-78
2022/02/16 18:53:42;;;;;;;51.58;24.45;;;;;;;;;;10461641;28;20032;-78
2022/02/16 18:58:42;;;;;;;55.07;24.80;;;;;;;;;;10455232;28;20021;-74
2022/02/16 19:03:43;;;;;;;62.78;24.05;;;;;;;;;;10444163;28;20465;-75
2022/02/16 19:08:44;;;;;;;60.45;24.40;;;;;;;;;;10486507;28;20063;-74
2022/02/16 19:13:44;;;;;;;51.20;23.73;;;;;;;;;;10486265;28;20020;-80
2022/02/16 19:18:44;;;;;;;55.87;24.40;;;;;;;;;;10488876;28;20012;-81
2022/02/16 19:23:47;;;;;;;57.97;26.05;;;;;;;;;;10487921;28;20107;-74
2022/02/16 19:28:47;;;;;;;64.43;25.67;;;;;;;;;;10488035;28;20097;-74
2022/02/16 19:33:49;;;;;;;36.93;17.20;;;;;;;;;;10491265;28;20101;-72
2022/02/16 19:38:49;;;;;;;27.50;13.25;;;;;;;;;;10482542;28;20673;-72
2022/02/16 19:43:49;;;;;;;33.78;14.15;;;;;;;;;;10488173;28;20021;-77
2022/02/16 19:48:50;;;;;;;39.00;18.40;;;;;;;;;;10488413;28;20062;-70
2022/02/16 19:53:50;;;;;;;44.05;20.70;;;;;;;;;;10474378;28;20025;-71
2022/02/16 19:58:51;;;;;;;46.57;21.27;;;;;;;;;;10444634;28;20094;-71
2022/02/16 20:03:51;;;;;;;36.03;19.27;;;;;;;;;;10471842;28;20019;-73
2022/02/16 20:08:51;;;;;;;47.43;23.30;;;;;;;;;;10487958;28;20282;-76
2022/02/16 20:13:52;;;;;;;49.33;22.98;;;;;;;;;;10484774;28;20510;-74
2022/02/16 20:18:52;;;;;;;50.73;23.43;;;;;;;;;;10485916;28;20438;-79
2022/02/16 20:23:52;;;;;;;46.80;23.65;;;;;;;;;;10485723;28;20461;-78
2022/02/16 20:28:58;;;;;;;53.33;24.57;;;;;;;;;;10486470;28;20461;-77
2022/02/16 20:33:58;;;;;;;53.50;27.20;;;;;;;;;;10485887;28;20299;-79
2022/02/16 20:38:59;;;;;;;44.58;22.80;;;;;;;;;;10479513;28;20024;-73
2022/02/16 20:44:00;;;;;;;43.40;20.35;;;;;;;;;;10444582;28;20009;-72
2022/02/16 20:49:00;;;;;;;48.05;18.75;;;;;;;;;;10444014;28;20559;-72
2022/02/16 20:54:01;;;;;;;37.60;21.42;;;;;;;;;;10443535;28;20090;-77
2022/02/16 20:59:04;;;;;;;53.92;22.00;;;;;;;;;;10444962;28;20017;-74
2022/02/16 21:04:05;;;;;;;51.00;23.48;;;;;;;;;;10443310;28;20702;-79
2022/02/16 21:09:05;;;;;;;53.95;23.45;;;;;;;;;;10427322;28;20059;-77
2022/02/16 21:14:05;;;;;;;49.25;22.20;;;;;;;;;;10444040;28;20487;-72
2022/02/16 21:19:06;;;;;;;55.90;23.03;;;;;;;;;;10447738;28;20044;-72
2022/02/16 21:24:06;;;;;;;48.00;22.80;;;;;;;;;;10474693;28;20036;-72
2022/02/16 21:29:07;;;;;;;51.63;26.13;;;;;;;;;;10443589;28;20264;-75
2022/02/16 21:34:07;;;;;;;55.33;26.47;;;;;;;;;;10458399;28;20194;-72
2022/02/16 21:39:07;;;;;;;51.85;24.60;;;;;;;;;;10471342;28;20082;-73
2022/02/16 21:44:08;;;;;;;45.33;21.90;;;;;;;;;;10482810;28;20082;-76
2022/02/16 21:49:08;;;;;;;32.13;17.92;;;;;;;;;;10468884;28;20036;-78
2022/02/16 21:54:10;;;;;;;34.73;13.87;;;;;;;;;;10441990;28;20032;-76
2022/02/16 21:59:11;;;;;;;27.08;14.75;;;;;;;;;;10458607;28;20496;-72
2022/02/16 22:04:11;;;;;;;29.27;15.70;;;;;;;;;;10454533;28;20422;-74
2022/02/16 22:09:12;;;;;;;31.13;16.83;;;;;;;;;;10441327;28;20028;-73
2022/02/16 22:14:12;;;;;;;33.67;16.50;;;;;;;;;;10442283;28;20361;-75
2022/02/16 22:19:12;;;;;;;32.50;15.45;;;;;;;;;;10439779;28;20293;-77
2022/02/16 22:24:13;;;;;;;33.28;16.27;;;;;;;;;;10442818;28;20083;-71
2022/02/16 22:29:13;;;;;;;27.20;16.10;;;;;;;;;;10440409;28;20021;-72
2022/02/16 22:34:13;;;;;;;33.17;15.65;;;;;;;;;;10439762;28;20095;-71
2022/02/16 22:39:14;;;;;;;35.20;16.23;;;;;;;;;;10440384;28;20507;-75
2022/02/16 22:44:14;;;;;;;34.08;14.98;;;;;;;;;;10439905;28;20013;-71
2022/02/16 22:49:14;;;;;;;28.48;14.43;;;;;;;;;;10457477;28;20119;-71
2022/02/16 22:54:15;;;;;;;31.10;16.17;;;;;;;;;;10456850;28;20135;-78
2022/02/16 22:59:16;;;;;;;26.80;15.00;;;;;;;;;;10441490;28;20049;-72
2022/02/16 23:04:16;;;;;;;31.00;15.27;;;;;;;;;;10456783;28;20420;-71
2022/02/16 23:14:53;;;;;;;35.30;17.02;;;;;;;;;;10389348;28;20120;-72
2022/02/16 23:19:53;;;;;;;41.10;18.55;;;;;;;;;;10456213;28;20025;-72
2022/02/16 23:24:53;;;;;;;34.72;16.15;;;;;;;;;;10456190;28;20021;-72
2022/02/16 23:29:53;;;;;;;35.47;16.27;;;;;;;;;;10456237;28;20591;-73
2022/02/16 23:34:54;;;;;;;35.50;16.75;;;;;;;;;;10456009;28;20059;-72
2022/02/16 23:39:54;;;;;;;33.35;16.45;;;;;;;;;;10455769;28;20028;-71
2022/02/16 23:44:54;;;;;;;33.20;17.35;;;;;;;;;;10455522;28;20029;-69
2022/02/16 23:49:55;;;;;;;40.10;19.30;;;;;;;;;;10458329;28;20043;-76
2022/02/16 23:54:55;;;;;;;33.87;18.03;;;;;;;;;;10484744;28;20054;-78
2022/02/16 23:59:55;;;;;;;35.80;19.05;;;;;;;;;;10487907;28;20032;-72
